This is the latest recevied weather packets stored in our database for station/object AJ1L. If no packets are shown the sender has not sent any weather packets the latest 1 day(s).
| Time | Temp. | Humidity | Pressure | Rain* | Wind** | Luminosity | Snow |
|---|---|---|---|---|---|---|---|
| 1836273864 | 16.11° C | 59% | 1019.9 hPa | 0 mm | 0.45 m/s, 329° | - | - |
| 1778052038 | 14.44° C | 84% | 1011 hPa | 0 mm | 2.24 m/s, 232° | - | - |
| 1778051038 | 14.44° C | 83% | 1011.1 hPa | 0 mm | 1.79 m/s, 238° | - | - |
| 1778050037 | 14.44° C | 83% | 1010.9 hPa | 0 mm | 1.79 m/s, 227° | - | - |
| 1778049039 | 14.44° C | 82% | 1011 hPa | 0 mm | 1.79 m/s, 230° | - | - |
| 1778048036 | 14.44° C | 82% | 1011 hPa | 0 mm | 1.79 m/s, 227° | - | - |
| 1778046037 | 14.44° C | 81% | 1011.3 hPa | 0 mm | 1.79 m/s, 232° | - | - |
| 1778045036 | 14.44° C | 80% | 1011.4 hPa | 0 mm | 1.34 m/s, 207° | - | - |
| 1778043037 | 14.44° C | 79% | 1011.6 hPa | 0 mm | 1.79 m/s, 242° | - | - |
| 1778040037 | 14.44° C | 76% | 1011.5 hPa | 0 mm | 1.79 m/s, 201° | - | - |
| 1778038036 | 14.44° C | 74% | 1011.4 hPa | 0 mm | 1.79 m/s, 214° | - | - |
| 1778037036 | 14.44° C | 73% | 1011.4 hPa | 0 mm | 1.79 m/s, 234° | - | - |
| 1778034650 | 14.44° C | 72% | 1011.3 hPa | 0 mm | 1.79 m/s, 223° | - | - |
| 1778033649 | 14.44° C | 72% | 1011.2 hPa | 0 mm | 1.79 m/s, 228° | - | - |
| 1778032649 | 15° C | 72% | 1011.3 hPa | 0 mm | 1.79 m/s, 211° | - | - |
| 1778031650 | 15° C | 72% | 1011.2 hPa | 0 mm | 1.79 m/s, 221° | - | - |
| 1778030649 | 15° C | 72% | 1010.9 hPa | 0 mm | 1.79 m/s, 218° | - | - |
| 1778029649 | 15° C | 72% | 1010.8 hPa | 0 mm | 1.79 m/s, 226° | - | - |
| 1778027649 | 15° C | 72% | 1010.6 hPa | 0 mm | 1.79 m/s, 229° | - | - |
| 1778026649 | 15° C | 71% | 1010.2 hPa | 0 mm | 1.79 m/s, 239° | - | - |
| 1778025649 | 15.56° C | 70% | 1009.6 hPa | 0 mm | 1.79 m/s, 224° | - | - |
| 1778024649 | 16.11° C | 68% | 1009.7 hPa | 0 mm | 1.79 m/s, 238° | - | - |
| 1778021649 | 17.22° C | 65% | 1008.7 hPa | 0 mm | 2.68 m/s, 208° | - | - |
| 1778020649 | 17.78° C | 64% | 1008.8 hPa | 0 mm | 2.24 m/s, 227° | - | - |
| 1778019649 | 18.89° C | 60% | 1008.8 hPa | 0 mm | 2.68 m/s, 238° | - | - |
* Rain latest hour (hover to see other rain measurements)
** Current wind speed in m/s (hover to see current wind gust speed)